createdAt,value
2018-02-22T00:01:51.310Z,2.00
2018-02-22T00:04:20.298Z,1.90
2018-02-22T00:06:49.137Z,2.00
2018-02-22T00:09:18.769Z,2.00
2018-02-22T00:11:48.381Z,2.00
2018-02-22T00:14:17.230Z,1.90
2018-02-22T00:16:47.339Z,1.90
2018-02-22T00:19:16.206Z,1.90
2018-02-22T00:21:45.070Z,1.90
2018-02-22T00:24:13.913Z,1.80
2018-02-22T00:26:43.277Z,1.80
2018-02-22T00:29:12.119Z,1.80
2018-02-22T00:31:40.958Z,1.90
2018-02-22T00:34:09.819Z,1.90
2018-02-22T00:36:39.432Z,1.80
2018-02-22T00:39:09.033Z,1.80
2018-02-22T00:41:38.912Z,1.70
2018-02-22T00:44:07.762Z,1.70
2018-02-22T00:46:36.598Z,1.70
2018-02-22T00:49:06.233Z,1.70
2018-02-22T00:51:35.890Z,1.60
2018-02-22T00:54:06.243Z,1.50
2018-02-22T00:56:35.850Z,1.60
2018-02-22T00:59:06.122Z,1.50
2018-02-22T01:01:34.953Z,1.40
2018-02-22T01:04:04.567Z,1.50
2018-02-22T01:06:34.429Z,1.50
2018-02-22T01:09:03.291Z,1.50
2018-02-22T01:11:32.911Z,1.50
2018-02-22T01:14:02.528Z,1.50
2018-02-22T01:16:31.368Z,1.50
2018-02-22T01:19:00.206Z,1.50
2018-02-22T01:21:29.047Z,1.40
2018-02-22T01:23:58.522Z,1.40
2018-02-22T01:26:27.353Z,1.40
2018-02-22T01:28:56.980Z,1.30
2018-02-22T01:31:25.809Z,1.30
2018-02-22T01:33:54.675Z,1.40
2018-02-22T01:36:23.536Z,1.30
2018-02-22T01:38:53.158Z,1.20
2018-02-22T01:41:22.014Z,1.20
2018-02-22T01:43:50.850Z,1.20
2018-02-22T01:46:19.690Z,1.20
2018-02-22T01:48:48.537Z,1.20
2018-02-22T01:51:17.387Z,1.20
2018-02-22T01:53:46.994Z,1.10
2018-02-22T01:56:16.643Z,1.10
2018-02-22T01:58:45.491Z,1.10
2018-02-22T02:01:15.106Z,1.20
2018-02-22T02:03:44.732Z,1.20
2018-02-22T02:06:16.191Z,1.20
2018-02-22T02:08:45.730Z,1.10
2018-02-22T02:11:14.584Z,1.20
2018-02-22T02:13:43.426Z,1.20
2018-02-22T02:16:12.279Z,1.10
2018-02-22T02:18:41.866Z,1.10
2018-02-22T02:21:10.712Z,1.00
2018-02-22T02:23:39.549Z,1.10
2018-02-22T02:26:08.382Z,1.00
2018-02-22T02:28:37.322Z,1.00
2018-02-22T02:31:06.132Z,1.00
2018-02-22T02:33:35.742Z,1.00
2018-02-22T02:36:05.363Z,1.00
2018-02-22T02:38:35.698Z,1.00
2018-02-22T02:41:04.542Z,0.90
2018-02-22T02:43:33.386Z,1.00
2018-02-22T02:46:02.226Z,1.00
2018-02-22T02:48:31.073Z,0.90
2018-02-22T02:50:59.930Z,0.90
2018-02-22T02:53:29.530Z,0.90
2018-02-22T02:55:59.163Z,0.90
2018-02-22T02:58:28.032Z,0.80
2018-02-22T03:00:57.635Z,0.90
2018-02-22T03:03:27.270Z,0.90
2018-02-22T03:05:56.169Z,0.80
2018-02-22T03:08:25.323Z,0.90
2018-02-22T03:10:54.176Z,0.90
2018-02-22T03:13:23.030Z,0.90
2018-02-22T03:15:52.632Z,0.80
2018-02-22T03:18:22.577Z,0.80
2018-02-22T03:20:51.441Z,0.70
2018-02-22T03:23:21.034Z,0.80
2018-02-22T03:25:50.651Z,0.80
2018-02-22T03:28:20.233Z,0.80
2018-02-22T03:30:49.075Z,0.80
2018-02-22T03:33:18.755Z,0.80
2018-02-22T03:35:48.364Z,0.80
2018-02-22T03:38:17.995Z,0.80
2018-02-22T03:40:46.834Z,0.80
2018-02-22T03:43:15.671Z,0.80
2018-02-22T03:45:44.532Z,0.80
2018-02-22T03:48:14.130Z,0.80
2018-02-22T03:50:43.754Z,0.80
2018-02-22T03:53:13.374Z,0.70
2018-02-22T03:55:42.232Z,0.70
2018-02-22T03:58:11.071Z,0.70
2018-02-22T04:00:39.911Z,0.70
2018-02-22T04:03:08.747Z,0.70
2018-02-22T04:05:37.595Z,0.70
2018-02-22T04:08:06.427Z,0.70
2018-02-22T04:10:36.177Z,0.70
2018-02-22T04:13:05.510Z,0.60
2018-02-22T04:15:34.338Z,0.60
2018-02-22T04:18:03.959Z,0.50
2018-02-22T04:20:32.843Z,0.50
2018-02-22T04:23:02.469Z,0.50
2018-02-22T04:25:31.337Z,0.40
2018-02-22T04:28:00.980Z,0.50
2018-02-22T04:30:29.799Z,0.40
2018-02-22T04:32:58.658Z,0.40
2018-02-22T04:35:27.505Z,0.30
2018-02-22T04:37:56.346Z,0.10
2018-02-22T04:40:26.416Z,0.10
2018-02-22T04:42:56.024Z,0.30
2018-02-22T04:45:25.634Z,0.30
2018-02-22T04:47:55.252Z,0.30
2018-02-22T04:50:24.850Z,0.30
2018-02-22T04:52:54.490Z,0.20
2018-02-22T04:55:23.331Z,0.10
2018-02-22T04:57:52.174Z,-0.10
2018-02-22T05:00:21.039Z,-0.20
2018-02-22T05:02:50.665Z,-0.10
2018-02-22T05:05:20.445Z,-0.20
2018-02-22T05:07:50.065Z,0.10
2018-02-22T05:10:19.142Z,0.00
2018-02-22T05:12:47.989Z,0.20
2018-02-22T05:15:16.826Z,0.20
2018-02-22T05:17:45.663Z,0.10
2018-02-22T05:20:14.515Z,0.10
2018-02-22T05:22:43.359Z,0.00
2018-02-22T05:25:12.186Z,0.10
2018-02-22T05:27:41.863Z,0.10
2018-02-22T05:30:10.792Z,0.10
2018-02-22T05:32:39.626Z,0.00
2018-02-22T05:35:08.499Z,0.00
2018-02-22T05:37:37.356Z,0.00
2018-02-22T05:40:06.318Z,0.00
2018-02-22T05:42:35.914Z,-0.20
2018-02-22T05:45:05.550Z,-0.40
2018-02-22T05:47:34.445Z,-0.50
2018-02-22T05:50:04.098Z,-0.30
2018-02-22T05:52:32.957Z,-0.40
2018-02-22T05:55:01.847Z,-0.30
2018-02-22T05:57:30.705Z,-0.30
2018-02-22T05:59:59.591Z,-0.30
2018-02-22T06:02:29.220Z,-0.30
2018-02-22T06:04:58.074Z,-0.40
2018-02-22T06:07:27.698Z,-0.50
2018-02-22T06:09:57.318Z,-0.60
2018-02-22T06:12:26.189Z,-0.60
2018-02-22T06:14:55.805Z,-0.60
2018-02-22T06:17:25.449Z,-0.60
2018-02-22T06:19:54.300Z,-0.60
2018-02-22T06:22:23.923Z,-0.50
2018-02-22T06:24:53.097Z,-0.60
2018-02-22T06:27:22.710Z,-0.40
2018-02-22T06:29:52.351Z,-0.40
2018-02-22T06:32:22.057Z,-0.40
2018-02-22T06:34:50.913Z,-0.40
2018-02-22T06:37:20.526Z,-0.50
2018-02-22T06:39:50.241Z,-0.50
2018-02-22T06:42:19.115Z,-0.60
2018-02-22T06:44:47.939Z,-0.50
2018-02-22T06:47:16.838Z,-0.50
2018-02-22T06:49:46.618Z,-0.50
2018-02-22T06:52:16.248Z,-0.40
2018-02-22T06:54:45.166Z,-0.50
2018-02-22T06:57:14.023Z,-0.40
2018-02-22T06:59:43.665Z,-0.30
2018-02-22T07:02:12.510Z,-0.30
2018-02-22T07:04:42.143Z,-0.20
2018-02-22T07:07:10.969Z,-0.30
2018-02-22T07:09:40.423Z,-0.30
2018-02-22T07:12:09.265Z,-0.30
2018-02-22T07:14:38.115Z,-0.20
2018-02-22T07:17:07.781Z,-0.10
2018-02-22T07:19:36.661Z,-0.10
2018-02-22T07:22:05.569Z,0.00
2018-02-22T07:24:34.435Z,0.20
2018-02-22T07:27:03.447Z,0.20
2018-02-22T07:29:32.328Z,0.30
2018-02-22T07:32:01.141Z,0.30
2018-02-22T07:34:30.006Z,0.40
2018-02-22T07:36:58.850Z,0.40
2018-02-22T07:39:28.485Z,0.50
2018-02-22T07:41:57.306Z,0.50
2018-02-22T07:44:26.178Z,0.60
2018-02-22T07:46:55.037Z,0.60
2018-02-22T07:49:25.596Z,0.70
2018-02-22T07:51:54.461Z,0.70
2018-02-22T07:54:24.072Z,0.90
2018-02-22T07:56:53.674Z,1.00
2018-02-22T07:59:22.606Z,0.90
2018-02-22T08:01:51.447Z,1.10
2018-02-22T08:04:21.087Z,1.30
2018-02-22T08:06:49.939Z,1.20
2018-02-22T08:09:19.564Z,1.60
2018-02-22T08:11:49.189Z,1.60
2018-02-22T08:14:18.222Z,1.50
2018-02-22T08:16:47.042Z,1.60
2018-02-22T08:19:16.670Z,1.80
2018-02-22T08:21:45.531Z,1.70
2018-02-22T08:24:15.167Z,1.90
2018-02-22T08:26:44.780Z,2.00
2018-02-22T08:29:13.622Z,2.00
2018-02-22T08:31:42.594Z,2.20
2018-02-22T08:34:11.439Z,2.40
2018-02-22T08:36:41.098Z,2.70
2018-02-22T08:39:09.921Z,2.80
2018-02-22T08:41:39.527Z,2.90
2018-02-22T08:44:09.150Z,3.10
2018-02-22T08:46:38.771Z,3.20
2018-02-22T08:49:07.630Z,3.10
2018-02-22T08:51:37.262Z,3.20
2018-02-22T08:54:06.120Z,3.20
2018-02-22T08:56:35.734Z,3.40
2018-02-22T08:59:05.357Z,3.60
2018-02-22T09:01:34.954Z,3.80
2018-02-22T09:04:04.566Z,3.90
2018-02-22T09:06:34.214Z,3.90
2018-02-22T09:09:03.049Z,3.90
2018-02-22T09:11:31.888Z,4.20
2018-02-22T09:14:00.738Z,4.60
2018-02-22T09:16:30.362Z,5.40
2018-02-22T09:18:59.227Z,5.40
2018-02-22T09:21:28.050Z,5.70
2018-02-22T09:23:56.938Z,5.80
2018-02-22T09:26:25.757Z,5.80
2018-02-22T09:28:54.614Z,5.90
2018-02-22T09:31:23.463Z,5.80
2018-02-22T09:33:52.315Z,5.90
2018-02-22T09:36:21.148Z,6.10
2018-02-22T09:38:50.372Z,6.40
2018-02-22T09:41:19.966Z,6.50
2018-02-22T09:43:49.604Z,6.50
2018-02-22T09:46:18.452Z,6.40
2018-02-22T09:48:48.105Z,7.00
2018-02-22T09:51:16.938Z,7.00
2018-02-22T09:53:45.783Z,7.40
2018-02-22T09:56:14.645Z,7.90
2018-02-22T09:58:44.250Z,9.70
2018-02-22T10:01:13.885Z,11.00
2018-02-22T10:03:42.734Z,10.90
2018-02-22T10:06:12.415Z,12.90
2018-02-22T10:08:41.214Z,12.80
2018-02-22T10:11:10.062Z,13.20
2018-02-22T10:13:39.730Z,13.50
2018-02-22T10:16:08.573Z,13.80
2018-02-22T10:18:38.184Z,14.20
2018-02-22T10:21:07.806Z,14.50
2018-02-22T10:23:36.663Z,14.40
2018-02-22T10:26:06.291Z,14.60
2018-02-22T10:28:35.153Z,14.50
2018-02-22T10:31:04.767Z,14.60
2018-02-22T10:33:34.386Z,14.70
2018-02-22T10:36:04.014Z,15.10
2018-02-22T10:38:32.938Z,15.10
2018-02-22T10:41:01.805Z,15.20
2018-02-22T10:43:30.687Z,15.20
2018-02-22T10:46:00.302Z,15.60
2018-02-22T10:48:29.150Z,15.50
2018-02-22T10:50:58.769Z,15.40
2018-02-22T10:53:28.398Z,15.40
2018-02-22T10:55:57.284Z,15.30
2018-02-22T10:58:26.344Z,15.30
2018-02-22T11:01:00.770Z,15.10
2018-02-22T11:03:29.696Z,15.30
2018-02-22T11:05:58.542Z,15.50
2018-02-22T11:08:27.395Z,15.70
2018-02-22T11:10:56.231Z,15.70
2018-02-22T11:13:25.897Z,16.00
2018-02-22T11:15:54.736Z,15.90
2018-02-22T11:18:24.342Z,14.40
2018-02-22T11:20:53.995Z,13.10
2018-02-22T11:23:22.834Z,13.00
2018-02-22T11:25:52.470Z,12.80
2018-02-22T11:28:21.390Z,12.80
2018-02-22T11:30:50.254Z,13.70
2018-02-22T11:33:19.105Z,14.30
2018-02-22T11:35:47.958Z,14.80
2018-02-22T11:38:16.818Z,15.00
2018-02-22T11:40:45.669Z,14.80
2018-02-22T11:43:15.285Z,14.70
2018-02-22T11:45:44.954Z,15.20
2018-02-22T11:48:13.796Z,15.20
2018-02-22T11:50:43.428Z,15.90
2018-02-22T11:53:12.262Z,15.90
2018-02-22T11:55:42.328Z,16.20
2018-02-22T11:58:11.191Z,16.20
2018-02-22T12:00:40.842Z,17.20
2018-02-22T12:03:09.768Z,17.20
2018-02-22T12:05:39.547Z,17.40
2018-02-22T12:08:08.446Z,17.40
2018-02-22T12:10:37.319Z,17.10
2018-02-22T12:13:06.165Z,15.90
2018-02-22T12:15:35.012Z,13.90
2018-02-22T12:18:03.894Z,13.50
2018-02-22T12:20:32.742Z,12.90
2018-02-22T12:23:02.812Z,13.70
2018-02-22T12:25:31.675Z,13.70
2018-02-22T12:28:00.534Z,14.80
2018-02-22T12:30:29.363Z,15.20
2018-02-22T12:32:58.256Z,15.70
2018-02-22T12:35:27.123Z,16.40
2018-02-22T12:37:57.261Z,14.70
2018-02-22T12:40:26.147Z,14.60
2018-02-22T12:42:54.994Z,13.20
2018-02-22T12:45:23.866Z,12.00
2018-02-22T12:47:52.730Z,11.10
2018-02-22T12:50:22.127Z,10.20
2018-02-22T12:52:50.966Z,9.30
2018-02-22T12:55:19.809Z,8.90
2018-02-22T12:57:48.690Z,8.50
2018-02-22T13:00:17.566Z,8.20
2018-02-22T13:02:47.172Z,8.10
2018-02-22T13:05:16.774Z,7.90
2018-02-22T13:07:46.377Z,7.70
2018-02-22T13:10:15.590Z,7.70
2018-02-22T13:12:44.422Z,7.80
2018-02-22T13:15:13.316Z,7.70
2018-02-22T13:17:42.171Z,7.70
2018-02-22T13:20:11.815Z,7.80
2018-02-22T13:22:40.666Z,7.70
2018-02-22T13:25:10.305Z,7.50
2018-02-22T13:27:39.914Z,7.40
2018-02-22T13:30:08.756Z,7.40
2018-02-22T13:32:49.413Z,7.50
2018-02-22T13:35:19.685Z,7.70
2018-02-22T13:40:51.106Z,7.60
2018-02-22T13:43:19.954Z,7.50
2018-02-22T13:45:48.838Z,7.40
2018-02-22T13:48:18.518Z,7.10
2018-02-22T13:51:00.034Z,7.10
2018-02-22T13:53:28.886Z,7.10
2018-02-22T13:55:58.313Z,7.00
2018-02-22T13:58:27.160Z,6.90
2018-02-22T14:01:08.523Z,7.00
2018-02-22T14:03:37.366Z,7.10
2018-02-22T14:06:06.972Z,7.00
2018-02-22T14:08:42.497Z,7.00
2018-02-22T14:11:11.339Z,7.00
2018-02-22T14:13:40.171Z,6.90
2018-02-22T14:16:09.009Z,6.80
2018-02-22T14:18:38.625Z,6.90
2018-02-22T14:21:07.466Z,6.80
2018-02-22T14:23:36.311Z,6.90
2018-02-22T14:26:05.165Z,7.00
2018-02-22T14:28:34.806Z,6.90
2018-02-22T14:31:03.650Z,6.80
2018-02-22T14:33:32.552Z,6.80
2018-02-22T14:36:02.418Z,6.80
2018-02-22T14:38:32.003Z,6.80
2018-02-22T14:41:00.850Z,6.70
2018-02-22T14:43:29.698Z,6.80
2018-02-22T14:45:58.522Z,6.80
2018-02-22T14:48:27.369Z,6.70
2018-02-22T14:50:56.214Z,6.70
2018-02-22T14:53:25.056Z,6.70
2018-02-22T14:55:54.506Z,6.60
2018-02-22T14:58:24.148Z,6.30
2018-02-22T15:00:58.622Z,6.30
2018-02-22T15:03:27.455Z,6.40
2018-02-22T15:05:56.319Z,6.40
2018-02-22T15:08:26.130Z,6.50
2018-02-22T15:10:55.772Z,6.50
2018-02-22T15:13:24.583Z,6.50
2018-02-22T15:15:53.449Z,6.30
2018-02-22T15:18:23.077Z,6.00
2018-02-22T15:20:51.959Z,6.00
2018-02-22T15:23:20.771Z,5.90
2018-02-22T15:25:49.616Z,5.90
2018-02-22T15:28:18.445Z,5.90
2018-02-22T15:30:47.348Z,5.80
2018-02-22T15:33:17.362Z,5.80
2018-02-22T15:35:46.224Z,5.80
2018-02-22T15:38:15.838Z,5.60
2018-02-22T15:40:44.748Z,5.50
2018-02-22T15:43:13.597Z,5.50
2018-02-22T15:45:42.471Z,5.40
2018-02-22T15:48:11.461Z,5.30
2018-02-22T15:50:40.281Z,5.40
2018-02-22T15:53:09.143Z,5.30
2018-02-22T15:55:37.985Z,5.20
2018-02-22T15:58:06.891Z,5.10
2018-02-22T16:00:35.739Z,5.10
2018-02-22T16:03:05.355Z,5.00
2018-02-22T16:05:34.993Z,5.00
2018-02-22T16:08:03.831Z,4.90
2018-02-22T16:10:33.010Z,4.90
2018-02-22T16:13:01.867Z,5.00
2018-02-22T16:15:33.209Z,4.90
2018-02-22T16:18:02.696Z,5.00
2018-02-22T16:20:32.560Z,4.80
2018-02-22T16:23:01.412Z,4.80
2018-02-22T16:28:05.538Z,4.60
2018-02-22T16:30:34.379Z,4.60
2018-02-22T16:33:03.354Z,4.50
2018-02-22T16:35:32.200Z,4.50
2018-02-22T16:38:01.050Z,4.40
2018-02-22T16:40:30.662Z,4.20
2018-02-22T16:43:00.292Z,4.10
2018-02-22T16:45:29.905Z,4.00
2018-02-22T16:47:58.765Z,4.00
2018-02-22T16:50:28.403Z,4.00
2018-02-22T16:52:57.248Z,4.00
2018-02-22T16:55:26.095Z,4.00
2018-02-22T16:57:54.939Z,4.00
2018-02-22T17:00:24.562Z,4.00
2018-02-22T17:02:53.475Z,3.90
2018-02-22T17:05:22.324Z,3.90
2018-02-22T17:07:51.920Z,3.90
2018-02-22T17:10:21.577Z,3.80
2018-02-22T17:12:50.427Z,3.70
2018-02-22T17:15:20.072Z,3.70
2018-02-22T17:17:49.710Z,3.70
2018-02-22T17:20:18.573Z,3.60
2018-02-22T17:22:48.324Z,3.60
2018-02-22T17:25:16.698Z,3.50
2018-02-22T17:27:51.336Z,3.60
2018-02-22T17:30:26.182Z,3.60
2018-02-22T17:32:54.983Z,3.50
2018-02-22T17:38:36.158Z,3.50
2018-02-22T17:41:21.788Z,3.40
2018-02-22T17:43:51.423Z,3.30
2018-02-22T17:46:20.355Z,3.20
2018-02-22T17:48:49.170Z,3.10
2018-02-22T17:51:18.803Z,3.10
2018-02-22T17:53:47.646Z,3.10
2018-02-22T17:56:16.510Z,3.20
2018-02-22T17:58:45.350Z,3.20
2018-02-22T18:01:14.990Z,3.20
2018-02-22T18:03:43.835Z,3.20
2018-02-22T18:06:12.678Z,3.20
2018-02-22T18:08:41.528Z,3.20
2018-02-22T18:11:11.159Z,3.10
2018-02-22T18:13:40.021Z,3.00
2018-02-22T18:16:09.616Z,3.00
2018-02-22T18:18:39.283Z,3.10
2018-02-22T18:21:08.102Z,3.00
2018-02-22T18:23:36.954Z,3.10
2018-02-22T18:26:05.800Z,3.10
2018-02-22T18:28:35.431Z,3.00
2018-02-22T18:31:04.270Z,2.90
2018-02-22T18:33:33.174Z,2.90
2018-02-22T18:36:02.028Z,3.00
2018-02-22T18:38:36.489Z,3.00
2018-02-22T18:41:06.112Z,2.90
2018-02-22T18:43:40.675Z,3.00
2018-02-22T18:46:09.544Z,2.90
2018-02-22T18:48:38.435Z,2.90
2018-02-22T18:51:07.372Z,2.90
2018-02-22T18:53:36.185Z,2.90
2018-02-22T18:56:05.836Z,2.90
2018-02-22T18:58:34.676Z,2.80
2018-02-22T19:01:03.526Z,2.90
2018-02-22T19:03:32.376Z,2.80
2018-02-22T19:06:01.995Z,2.90
2018-02-22T19:08:30.857Z,2.80
2018-02-22T19:10:59.875Z,2.80
2018-02-22T19:13:28.754Z,2.70
2018-02-22T19:15:58.358Z,2.80
2018-02-22T19:18:27.183Z,2.70
2018-02-22T19:20:56.062Z,2.70
2018-02-22T19:23:25.452Z,2.70
2018-02-22T19:25:55.142Z,2.70
2018-02-22T19:28:23.945Z,2.60
2018-02-22T19:30:54.208Z,2.60
2018-02-22T19:33:23.039Z,2.60
2018-02-22T19:35:51.884Z,2.70
2018-02-22T19:38:20.734Z,2.60
2018-02-22T19:40:50.326Z,2.50
2018-02-22T19:43:19.986Z,2.50
2018-02-22T19:45:48.823Z,2.50
2018-02-22T19:48:17.715Z,2.60
2018-02-22T19:50:46.573Z,2.60
2018-02-22T19:53:15.442Z,2.60
2018-02-22T19:55:44.280Z,2.50
2018-02-22T19:58:13.129Z,2.50
2018-02-22T20:00:41.970Z,2.60
2018-02-22T20:03:11.617Z,2.50
2018-02-22T20:05:40.447Z,2.50
2018-02-22T20:08:09.301Z,2.60
2018-02-22T20:10:38.147Z,2.60
2018-02-22T20:13:07.798Z,2.50
2018-02-22T20:15:36.635Z,2.40
2018-02-22T20:18:07.438Z,2.40
2018-02-22T20:20:37.281Z,2.50
2018-02-22T20:23:06.875Z,2.60
2018-02-22T20:25:35.722Z,2.50
2018-02-22T20:28:04.581Z,2.60
2018-02-22T20:30:33.459Z,2.60
2018-02-22T20:33:03.206Z,2.60
2018-02-22T20:35:32.083Z,2.50
2018-02-22T20:38:00.927Z,2.50
2018-02-22T20:40:29.791Z,2.50
2018-02-22T20:42:58.643Z,2.50
2018-02-22T20:45:28.260Z,2.40
2018-02-22T20:47:57.117Z,2.30
2018-02-22T20:50:26.742Z,2.40
2018-02-22T20:55:57.418Z,2.30
2018-02-22T20:58:26.259Z,2.30
2018-02-22T21:00:55.901Z,2.20
2018-02-22T21:03:24.983Z,2.20
2018-02-22T21:05:54.607Z,2.20
2018-02-22T21:08:23.447Z,2.20
2018-02-22T21:10:52.295Z,2.20
2018-02-22T21:13:21.137Z,2.10
2018-02-22T21:15:50.733Z,2.20
2018-02-22T21:18:19.583Z,2.20
2018-02-22T21:20:48.426Z,2.10
2018-02-22T21:23:18.058Z,2.10
2018-02-22T21:25:46.909Z,2.00
2018-02-22T21:28:16.212Z,2.00
2018-02-22T21:30:45.046Z,2.00
2018-02-22T21:33:13.898Z,2.00
2018-02-22T21:35:43.497Z,2.00
2018-02-22T21:38:13.420Z,1.90
2018-02-22T21:40:42.243Z,1.90
2018-02-22T21:43:11.105Z,1.90
2018-02-22T21:45:41.196Z,1.90
2018-02-22T21:48:10.789Z,1.90
2018-02-22T21:50:39.644Z,2.00
2018-02-22T21:53:09.260Z,1.90
2018-02-22T21:55:38.197Z,1.80
2018-02-22T21:58:07.831Z,1.90
2018-02-22T22:00:38.354Z,1.80
2018-02-22T22:03:07.201Z,1.80
2018-02-22T22:05:36.016Z,1.80
2018-02-22T22:08:04.875Z,1.80
2018-02-22T22:10:33.702Z,1.80
2018-02-22T22:13:02.587Z,1.80
2018-02-22T22:15:31.423Z,1.70
2018-02-22T22:18:00.345Z,1.80
2018-02-22T22:20:29.150Z,1.70
2018-02-22T22:22:58.001Z,1.70
2018-02-22T22:25:26.870Z,1.70
2018-02-22T22:27:55.688Z,1.70
2018-02-22T22:30:24.568Z,1.70
2018-02-22T22:32:53.402Z,1.60
2018-02-22T22:35:23.031Z,1.60
2018-02-22T22:37:52.654Z,1.50
2018-02-22T22:40:21.517Z,1.50
2018-02-22T22:42:51.127Z,1.60
2018-02-22T22:45:21.191Z,1.60
2018-02-22T22:47:50.062Z,1.50
2018-02-22T22:50:18.926Z,1.60
2018-02-22T22:52:48.541Z,1.40
2018-02-22T22:55:18.159Z,1.30
2018-02-22T22:57:47.014Z,1.30
2018-02-22T23:00:15.872Z,1.30
2018-02-22T23:02:44.718Z,1.40
2018-02-22T23:05:13.572Z,1.30
2018-02-22T23:07:42.415Z,1.30
2018-02-22T23:10:11.264Z,1.30
2018-02-22T23:12:41.194Z,1.40
2018-02-22T23:15:10.777Z,1.40
2018-02-22T23:17:40.406Z,1.30
2018-02-22T23:20:11.375Z,1.30
2018-02-22T23:22:40.222Z,1.30
2018-02-22T23:25:09.823Z,1.40
2018-02-22T23:27:39.441Z,1.40
2018-02-22T23:30:08.623Z,1.30
2018-02-22T23:32:38.235Z,1.40
2018-02-22T23:35:07.868Z,1.40
2018-02-22T23:37:36.710Z,1.30
2018-02-22T23:40:11.286Z,1.40
2018-02-22T23:42:40.122Z,1.40
2018-02-22T23:45:09.756Z,1.40
2018-02-22T23:47:39.353Z,1.40
2018-02-22T23:50:08.974Z,1.30
2018-02-22T23:52:39.094Z,1.30
2018-02-22T23:55:08.734Z,1.30
2018-02-22T23:57:37.570Z,1.30
